Time,TemperatureF,DewpointF,PressureIn,WindDirection,WindDirectionDegrees,WindSpeedMPH,WindSpeedGustMPH,Humidity,HourlyPrecipIn,Conditions,Clouds,dailyrainin,SoftwareType,DateUTC
2013-01-16 00:00:00,22.9,19.9,30.12,East,90,1.0,3.0,88,0.00,,---,0.00,VWS V14.01,2013-01-16 05:00:00,
2013-01-16 00:30:00,23.9,21.1,30.10,East,90,0.0,2.0,89,0.00,,---,0.00,VWS V14.01,2013-01-16 05:30:00,
2013-01-16 01:00:00,23.1,20.6,30.09,ENE,68,0.0,2.0,90,0.00,,---,0.00,VWS V14.01,2013-01-16 06:00:00,
2013-01-16 01:30:00,22.8,20.3,30.09,ENE,68,0.0,2.0,90,0.00,,---,0.00,VWS V14.01,2013-01-16 06:30:00,
2013-01-16 02:00:00,22.7,20.2,30.08,ENE,68,0.0,2.0,90,0.00,,---,0.00,VWS V14.01,2013-01-16 07:00:00,
2013-01-16 02:30:00,22.5,20.3,30.07,ENE,68,1.0,2.0,91,0.00,,---,0.00,VWS V14.01,2013-01-16 07:30:00,
2013-01-16 03:00:00,22.9,20.4,30.07,ENE,68,0.0,1.0,90,0.00,,---,0.00,VWS V14.01,2013-01-16 08:00:00,
2013-01-16 03:30:00,23.0,20.2,30.05,NNE,22,1.0,3.0,89,0.00,,---,0.00,VWS V14.01,2013-01-16 08:30:00,
2013-01-16 04:00:00,22.8,20.6,30.05,NNE,22,0.0,2.0,91,0.00,,---,0.00,VWS V14.01,2013-01-16 09:00:00,
2013-01-16 04:30:00,23.1,20.9,30.03,NNE,22,0.0,1.0,91,0.00,,---,0.00,VWS V14.01,2013-01-16 09:30:00,
2013-01-16 05:00:00,23.3,21.1,30.03,NNE,22,0.0,2.0,91,0.00,,---,0.00,VWS V14.01,2013-01-16 10:00:00,
2013-01-16 05:30:00,22.9,20.7,30.01,NNE,22,0.0,1.0,91,0.00,,---,0.00,VWS V14.01,2013-01-16 10:30:00,
2013-01-16 06:00:00,22.4,20.2,30.00,NNE,22,0.0,2.0,91,0.00,,---,0.00,VWS V14.01,2013-01-16 11:00:00,
2013-01-16 06:30:00,22.7,20.7,29.99,NNE,22,0.0,2.0,92,0.00,,---,0.00,VWS V14.01,2013-01-16 11:30:00,
2013-01-16 07:00:00,22.9,20.7,29.99,NNE,22,0.0,2.0,91,0.00,,---,0.00,VWS V14.01,2013-01-16 12:00:00,
2013-01-16 07:30:00,22.0,20.0,29.97,NNE,22,0.0,1.0,92,0.00,,---,0.00,VWS V14.01,2013-01-16 12:30:00,
2013-01-16 08:00:00,21.1,19.1,29.99,NNE,22,1.0,3.0,92,0.00,,---,0.00,VWS V14.01,2013-01-16 13:00:00,
2013-01-16 08:30:00,21.7,19.7,29.97,SE,135,1.0,2.0,92,0.00,,---,0.00,VWS V14.01,2013-01-16 13:30:00,
2013-01-16 09:00:00,22.1,20.1,29.98,SSE,158,2.0,4.0,92,0.00,,---,0.00,VWS V14.01,2013-01-16 14:00:00,
2013-01-16 09:30:00,24.4,21.9,29.99,SW,225,5.0,9.0,90,0.00,,---,0.00,VWS V14.01,2013-01-16 14:30:00,
2013-01-16 10:00:00,25.8,22.7,29.99,SW,225,7.0,12.0,88,0.00,,---,0.00,VWS V14.01,2013-01-16 15:00:00,
2013-01-16 10:30:00,26.9,23.3,29.99,WSW,248,8.0,14.0,86,0.00,,---,0.00,VWS V14.01,2013-01-16 15:30:00,
2013-01-16 11:00:00,28.0,23.5,29.98,WSW,248,9.0,15.0,83,0.00,,---,0.00,VWS V14.01,2013-01-16 16:00:00,
2013-01-16 11:30:00,29.0,23.3,29.96,WSW,248,9.0,17.0,79,0.00,,---,0.00,VWS V14.01,2013-01-16 16:30:00,
2013-01-16 12:00:00,30.3,23.0,29.94,WSW,248,9.0,16.0,74,0.00,,---,0.00,VWS V14.01,2013-01-16 17:00:00,
2013-01-16 12:30:00,31.7,22.7,29.91,SW,225,9.0,15.0,69,0.00,,---,0.00,VWS V14.01,2013-01-16 17:30:00,
2013-01-16 13:00:00,32.4,20.9,29.89,SW,225,9.0,16.0,62,0.00,,---,0.00,VWS V14.01,2013-01-16 18:00:00,
2013-01-16 13:30:00,33.9,22.3,29.89,SW,225,11.0,20.0,62,0.00,,---,0.00,VWS V14.01,2013-01-16 18:30:00,
2013-01-16 14:00:00,34.2,21.8,29.88,SW,225,11.0,20.0,60,0.00,,---,0.00,VWS V14.01,2013-01-16 19:00:00,
2013-01-16 14:30:00,34.8,21.5,29.88,SW,225,11.0,22.0,58,0.00,,---,0.00,VWS V14.01,2013-01-16 19:30:00,
2013-01-16 15:00:00,35.2,21.5,29.87,SW,225,11.0,19.0,57,0.00,,---,0.00,VWS V14.01,2013-01-16 20:00:00,
2013-01-16 15:30:00,35.4,21.7,29.87,SW,225,11.0,20.0,57,0.00,,---,0.00,VWS V14.01,2013-01-16 20:30:00,
2013-01-16 16:00:00,35.4,22.1,29.87,SW,225,11.0,20.0,58,0.00,,---,0.00,VWS V14.01,2013-01-16 21:00:00,
2013-01-16 16:30:00,35.2,22.7,29.88,SW,225,10.0,19.0,60,0.00,,---,0.00,VWS V14.01,2013-01-16 21:30:00,
2013-01-16 17:00:00,34.5,23.2,29.90,SW,225,10.0,19.0,63,0.00,,---,0.00,VWS V14.01,2013-01-16 22:00:00,
2013-01-16 17:30:00,34.2,23.3,29.90,SW,225,10.0,20.0,64,0.00,,---,0.00,VWS V14.01,2013-01-16 22:30:00,
2013-01-16 18:00:00,33.6,24.2,29.91,SW,225,9.0,19.0,68,0.00,,---,0.00,VWS V14.01,2013-01-16 23:00:00,
2013-01-16 18:30:00,33.5,24.1,29.92,SW,225,10.0,19.0,68,0.00,,---,0.00,VWS V14.01,2013-01-16 23:30:00,
2013-01-16 19:00:00,33.5,24.8,29.91,SW,225,9.0,20.0,70,0.00,,---,0.00,VWS V14.01,2013-01-17 00:00:00,
2013-01-16 19:30:00,33.4,25.4,29.93,SW,225,9.0,17.0,72,0.00,,---,0.00,VWS V14.01,2013-01-17 00:30:00,
2013-01-16 20:00:00,33.2,26.5,29.94,WSW,248,9.0,20.0,76,0.00,,---,0.00,VWS V14.01,2013-01-17 01:00:00,
2013-01-16 20:30:00,33.2,27.1,29.95,WSW,248,11.0,18.0,78,0.00,,---,0.00,VWS V14.01,2013-01-17 01:30:00,
2013-01-16 21:00:00,33.1,27.6,29.96,WSW,248,10.0,19.0,80,0.00,,---,0.00,VWS V14.01,2013-01-17 02:00:00,
2013-01-16 21:30:00,33.3,27.8,29.98,WSW,248,10.0,17.0,80,0.00,,---,0.00,VWS V14.01,2013-01-17 02:30:00,
2013-01-16 22:00:00,33.3,27.8,29.98,WSW,248,9.0,18.0,80,0.00,,---,0.00,VWS V14.01,2013-01-17 03:00:00,
2013-01-16 22:30:00,33.3,28.1,29.98,WSW,248,9.0,16.0,81,0.00,,---,0.00,VWS V14.01,2013-01-17 03:30:00,
2013-01-16 23:00:00,33.4,28.2,29.98,WSW,248,8.0,15.0,81,0.00,,---,0.00,VWS V14.01,2013-01-17 04:00:00,
2013-01-16 23:30:00,33.4,28.2,29.99,WSW,248,8.0,15.0,81,0.00,,---,0.00,VWS V14.01,2013-01-17 04:30:00,